Airfield :
LOGIN :

Register | Disclaimer

   EN    FR    IT 

 










Legend :    VFR   Marginal VFR   IFR   Intensive IFR   Very Intensive IFR
Visi :
Ceiling :
>= 8 km
>= 3000ft
5 to 8 km
1000 to 3000 ft
1500m to 5 km
500 to 1000 ft
800 to 1500m
200 to 500 ft
< 800m
< 200 ft
Symbols :   Thunderstorms  Fog  Heavy snow  Heavy precipitations  Wind > 20 kt
SIGMETs :     Misc.  Thunderstorms  Icing  Turbulence  Mountain Waves  Volcanic Ashes







- Airport Elevation : 1910 ft
- IATA code : RDZ
- Download approach charts


LFCR - Rodez

CURRENT METAR :
  • 241330Z AUTO 32005KT 240V040 CAVOK 22/12 Q1021 NOSIG

EXPIRED METARs :
  • 241300Z AUTO 33005KT 290V010 CAVOK 22/10 Q1021 NOSIG
  • 241230Z AUTO 31006KT 250V360 CAVOK 22/11 Q1021 NOSIG
  • 241200Z AUTO 32006KT 280V010 CAVOK 21/11 Q1021 NOSIG
  • 241130Z AUTO 32005KT 270V020 CAVOK 21/11 Q1021 NOSIG
  • 241100Z AUTO 33004KT 280V010 CAVOK 20/11 Q1021 NOSIG

TAF TAF LFCR
Valid from the 24 at 12:00 until the 25 at 12:00 UTC


241100Z 2412/2512 33005KT CAVOK
BECMG 2418/2420 VRB02KT
TEMPO 2509/2512 SCT010 BKN070
No reported NOTAMs for that airfield.



MET'MAP, your aeronautical weather chart ! - Copyright ORBIFLY December 2007 - Disclaimer

ORBIFLY MET'MAP TEAM :

Programming & Development : Alexandra Zaïnal
Concept & Development : Baudouin d'Aumeries
Co-Development & Prog : Marc-Olivier Méhu
Technical & hardware support : Manuel Goepfert

Contact : metmap@orbifly.com




SOURCES & CREDITS :

   NOAA